Time;durP1;ratioP1;P1;durP2;ratioP2;P2;SDS_P1;SDS_P2;PMS_P1;PMS_P2;Temp;Humidity;BMP_temperature;BMP_pressure;BME280_temperature;BME280_humidity;BME280_pressure;Samples;Min_cycle;Max_cycle;Signal;HPM_P1;HPM_P2
2023/10/19 00:00:20;;;;;;;;;0.75;0.75;;;;;;;;5052797;28;8861;-84
2023/10/19 00:02:51;;;;;;;;;0.50;0.50;;;;;;;;5053258;28;8810;-83
2023/10/19 00:05:19;;;;;;;;;2.25;1.75;;;;;;;;5054572;28;8964;-85
2023/10/19 00:07:46;;;;;;;;;1.75;1.75;;;;;;;;5054138;28;8857;-84
2023/10/19 00:10:16;;;;;;;;;1.00;1.00;;;;;;;;5055627;28;8903;-85
2023/10/19 00:12:43;;;;;;;;;3.25;1.00;;;;;;;;5043431;28;8930;-84
2023/10/19 00:15:14;;;;;;;;;3.25;0.75;;;;;;;;5055283;28;8845;-84
2023/10/19 00:17:45;;;;;;;;;1.00;1.00;;;;;;;;5056273;28;8872;-83
2023/10/19 00:20:37;;;;;;;;;1.00;1.00;;;;;;;;5054683;28;9752;-87
2023/10/19 00:23:05;;;;;;;;;2.50;1.75;;;;;;;;5041161;28;8912;-87
2023/10/19 00:25:34;;;;;;;;;2.75;1.00;;;;;;;;5049501;28;8865;-85
2023/10/19 00:28:03;;;;;;;;;2.00;2.00;;;;;;;;5046905;28;8878;-87
2023/10/19 00:30:35;;;;;;;;;2.00;2.00;;;;;;;;5050702;28;8762;-86
2023/10/19 00:33:04;;;;;;;;;1.75;0.75;;;;;;;;5039751;28;8982;-87
2023/10/19 00:35:35;;;;;;;;;1.00;0.00;;;;;;;;5049733;28;8861;-87
2023/10/19 00:40:47;;;;;;;;;1.25;0.75;;;;;;;;5035465;28;8896;-87
2023/10/19 00:43:17;;;;;;;;;0.25;0.25;;;;;;;;5050213;28;9016;-84
2023/10/19 00:45:47;;;;;;;;;1.25;0.75;;;;;;;;5050576;28;8869;-85
2023/10/19 00:48:17;;;;;;;;;5.00;2.25;;;;;;;;5050325;28;8878;-86
2023/10/19 00:50:47;;;;;;;;;1.50;1.50;;;;;;;;5050598;28;8896;-83
2023/10/19 00:53:15;;;;;;;;;1.75;1.50;;;;;;;;5053891;28;8948;-84
2023/10/19 00:55:44;;;;;;;;;1.00;1.00;;;;;;;;5053641;28;8984;-87
2023/10/19 00:58:18;;;;;;;;;1.00;1.00;;;;;;;;5051518;28;8889;-85
2023/10/19 01:00:49;;;;;;;;;2.00;2.00;;;;;;;;5052053;28;8949;-85
2023/10/19 01:03:17;;;;;;;;;4.75;2.25;;;;;;;;5062192;28;8862;-84
2023/10/19 01:05:50;;;;;;;;;6.00;2.25;;;;;;;;5067694;28;9601;-85
2023/10/19 01:08:24;;;;;;;;;2.50;0.75;;;;;;;;5059050;28;8851;-87
2023/10/19 01:10:53;;;;;;;;;1.75;1.50;;;;;;;;5058075;28;8973;-86
2023/10/19 01:13:26;;;;;;;;;1.00;1.00;;;;;;;;5070817;28;8871;-85
2023/10/19 01:15:58;;;;;;;;;0.00;0.00;;;;;;;;5072308;28;8989;-86
2023/10/19 01:18:29;;;;;;;;;2.75;1.50;;;;;;;;5060244;28;8876;-84
2023/10/19 01:20:56;;;;;;;;;1.50;1.50;;;;;;;;5075119;28;8893;-86
2023/10/19 01:23:27;;;;;;;;;0.75;0.75;;;;;;;;5067072;28;8919;-86
2023/10/19 01:26:10;;;;;;;;;0.75;0.75;;;;;;;;5069127;28;8977;-83
2023/10/19 01:28:47;;;;;;;;;0.75;0.75;;;;;;;;5066887;28;8862;-87
2023/10/19 01:31:16;;;;;;;;;3.00;1.75;;;;;;;;5066430;28;8819;-84
2023/10/19 01:33:45;;;;;;;;;2.00;2.00;;;;;;;;5065304;28;8985;-85
2023/10/19 01:36:24;;;;;;;;;1.00;1.00;;;;;;;;5057034;28;8867;-84
2023/10/19 01:38:53;;;;;;;;;2.50;1.25;;;;;;;;5068711;28;8939;-85
2023/10/19 01:41:21;;;;;;;;;2.00;1.00;;;;;;;;5070142;28;8866;-84
2023/10/19 01:43:48;;;;;;;;;1.75;1.50;;;;;;;;5066139;28;8968;-83
2023/10/19 01:46:21;;;;;;;;;2.00;2.00;;;;;;;;5059901;28;9633;-82
2023/10/19 01:48:49;;;;;;;;;0.00;0.00;;;;;;;;5057740;28;8973;-84
2023/10/19 01:51:17;;;;;;;;;2.00;0.50;;;;;;;;5070714;28;8909;-84
2023/10/19 01:53:44;;;;;;;;;1.00;1.00;;;;;;;;5056881;28;8877;-88
2023/10/19 01:56:14;;;;;;;;;1.00;1.00;;;;;;;;5068361;28;8850;-84
2023/10/19 01:58:41;;;;;;;;;3.75;0.75;;;;;;;;5066233;28;8829;-84
2023/10/19 02:01:15;;;;;;;;;2.00;2.00;;;;;;;;5068727;28;9586;-88
2023/10/19 02:03:43;;;;;;;;;1.00;1.00;;;;;;;;5067963;28;8858;-85
2023/10/19 02:06:16;;;;;;;;;0.50;0.50;;;;;;;;5069402;28;8948;-84
2023/10/19 02:08:48;;;;;;;;;2.00;2.00;;;;;;;;5069088;28;8881;-89
2023/10/19 02:11:18;;;;;;;;;1.50;1.00;;;;;;;;5071507;28;8862;-85
2023/10/19 02:13:46;;;;;;;;;2.75;1.75;;;;;;;;5073676;28;8854;-85
2023/10/19 02:16:15;;;;;;;;;3.75;2.00;;;;;;;;5071316;28;8921;-85
2023/10/19 02:18:42;;;;;;;;;2.00;1.00;;;;;;;;5061601;28;8851;-85
2023/10/19 02:21:12;;;;;;;;;4.75;1.75;;;;;;;;5071321;28;8862;-84
2023/10/19 02:23:39;;;;;;;;;6.25;3.00;;;;;;;;5068893;28;8859;-87
2023/10/19 02:26:07;;;;;;;;;2.00;2.00;;;;;;;;5065854;28;8902;-89
2023/10/19 02:28:38;;;;;;;;;1.75;1.75;;;;;;;;5058231;28;8883;-88
2023/10/19 02:31:15;;;;;;;;;2.00;1.25;;;;;;;;5068806;28;8775;-89
2023/10/19 02:33:45;;;;;;;;;2.25;2.25;;;;;;;;5068995;28;8847;-86
2023/10/19 02:36:15;;;;;;;;;6.25;3.25;;;;;;;;5068630;28;9712;-87
2023/10/19 02:38:44;;;;;;;;;2.50;2.50;;;;;;;;5073838;28;8869;-87
2023/10/19 02:41:11;;;;;;;;;4.25;2.00;;;;;;;;5058218;28;8850;-87
2023/10/19 02:43:40;;;;;;;;;1.75;1.75;;;;;;;;5070050;28;9645;-84
2023/10/19 02:46:10;;;;;;;;;2.00;2.00;;;;;;;;5070378;28;8846;-87
2023/10/19 02:48:36;;;;;;;;;3.75;2.00;;;;;;;;5068876;28;8892;-85
2023/10/19 02:51:10;;;;;;;;;1.00;1.00;;;;;;;;5069472;28;8859;-86
2023/10/19 02:53:40;;;;;;;;;4.25;3.00;;;;;;;;5067132;28;8876;-87
2023/10/19 02:56:15;;;;;;;;;4.75;2.75;;;;;;;;5059682;28;8865;-87
2023/10/19 02:58:48;;;;;;;;;4.50;2.75;;;;;;;;5064789;28;8871;-85
2023/10/19 03:01:21;;;;;;;;;3.00;2.50;;;;;;;;5056288;28;8789;-85
2023/10/19 03:03:49;;;;;;;;;2.00;2.00;;;;;;;;5069063;28;8874;-86
2023/10/19 03:06:19;;;;;;;;;3.00;2.00;;;;;;;;5073151;28;8950;-84
2023/10/19 03:08:46;;;;;;;;;0.75;0.75;;;;;;;;5062925;28;8841;-87
2023/10/19 03:11:13;;;;;;;;;3.00;2.00;;;;;;;;5061201;28;8947;-87
2023/10/19 03:13:43;;;;;;;;;5.00;2.75;;;;;;;;5070447;28;8870;-86
2023/10/19 03:16:10;;;;;;;;;4.25;3.00;;;;;;;;5071234;28;8866;-86
2023/10/19 03:18:37;;;;;;;;;3.00;3.00;;;;;;;;5072174;28;8900;-83
2023/10/19 03:21:05;;;;;;;;;2.75;2.75;;;;;;;;5071498;28;8854;-85
2023/10/19 03:23:34;;;;;;;;;3.50;2.50;;;;;;;;5071869;28;8870;-84
2023/10/19 03:26:23;;;;;;;;;4.50;3.50;;;;;;;;5068499;28;8936;-84
2023/10/19 03:28:55;;;;;;;;;5.50;3.50;;;;;;;;5072335;28;8958;-84
2023/10/19 03:31:23;;;;;;;;;5.00;5.00;;;;;;;;5061413;28;8787;-83
2023/10/19 03:33:53;;;;;;;;;2.75;2.00;;;;;;;;5073190;28;8863;-84
2023/10/19 03:36:22;;;;;;;;;3.00;3.00;;;;;;;;5071065;28;8863;-85
2023/10/19 03:38:51;;;;;;;;;5.00;5.00;;;;;;;;5071819;28;8846;-84
2023/10/19 03:41:21;;;;;;;;;3.75;3.75;;;;;;;;5060003;28;8866;-84
2023/10/19 03:43:51;;;;;;;;;5.00;4.00;;;;;;;;5073163;28;8862;-84
2023/10/19 03:46:24;;;;;;;;;5.25;4.50;;;;;;;;5074352;28;8858;-87
2023/10/19 03:48:52;;;;;;;;;3.25;3.25;;;;;;;;5072741;28;8836;-83
2023/10/19 03:51:19;;;;;;;;;5.25;3.50;;;;;;;;5073668;28;8870;-84
2023/10/19 03:53:53;;;;;;;;;4.00;4.00;;;;;;;;5073502;28;8897;-84
2023/10/19 03:56:21;;;;;;;;;7.50;4.00;;;;;;;;5075394;28;8969;-86
2023/10/19 03:58:50;;;;;;;;;6.75;6.75;;;;;;;;5075483;28;8871;-87
2023/10/19 04:01:20;;;;;;;;;7.00;5.00;;;;;;;;5072658;28;8791;-85
2023/10/19 04:03:48;;;;;;;;;5.75;4.00;;;;;;;;5070393;28;8867;-86
2023/10/19 04:06:16;;;;;;;;;6.25;5.00;;;;;;;;5076699;28;8890;-85
2023/10/19 04:08:50;;;;;;;;;3.50;3.50;;;;;;;;5071256;28;8863;-86
2023/10/19 04:11:22;;;;;;;;;3.00;3.00;;;;;;;;5070972;28;8871;-86
2023/10/19 04:13:54;;;;;;;;;5.25;3.75;;;;;;;;5070865;28;8862;-85
2023/10/19 04:16:22;;;;;;;;;6.50;5.00;;;;;;;;5069817;28;8865;-86
2023/10/19 04:18:50;;;;;;;;;4.50;3.25;;;;;;;;5070458;28;8944;-84
2023/10/19 04:21:17;;;;;;;;;6.25;4.50;;;;;;;;5070188;28;8842;-84
2023/10/19 04:23:46;;;;;;;;;7.25;4.00;;;;;;;;5074702;28;8870;-83
2023/10/19 04:26:17;;;;;;;;;5.50;4.25;;;;;;;;5070409;28;8854;-84
2023/10/19 04:28:49;;;;;;;;;4.50;4.50;;;;;;;;5070496;28;8869;-85
2023/10/19 04:31:17;;;;;;;;;7.50;6.00;;;;;;;;5069400;28;8828;-86
2023/10/19 04:33:50;;;;;;;;;4.00;3.25;;;;;;;;5071275;28;8854;-86
2023/10/19 04:36:21;;;;;;;;;2.00;2.00;;;;;;;;5071343;28;8870;-85
2023/10/19 04:38:48;;;;;;;;;5.50;4.00;;;;;;;;5070925;28;8866;-84
2023/10/19 04:41:15;;;;;;;;;6.50;5.00;;;;;;;;5069605;28;8847;-86
2023/10/19 04:43:49;;;;;;;;;3.50;3.50;;;;;;;;5070283;28;8865;-85
2023/10/19 04:46:18;;;;;;;;;5.00;5.00;;;;;;;;5059069;28;8851;-86
2023/10/19 04:48:47;;;;;;;;;7.00;5.50;;;;;;;;5071028;28;8862;-86
2023/10/19 04:51:14;;;;;;;;;4.75;4.75;;;;;;;;5075370;28;8931;-83
2023/10/19 04:53:42;;;;;;;;;7.50;6.25;;;;;;;;5069149;28;8920;-86
2023/10/19 04:56:09;;;;;;;;;5.00;4.75;;;;;;;;5070065;28;8842;-86
2023/10/19 04:58:37;;;;;;;;;5.50;5.50;;;;;;;;5066565;28;8852;-85
2023/10/19 05:01:05;;;;;;;;;7.00;6.75;;;;;;;;5068307;28;8775;-85
2023/10/19 05:03:32;;;;;;;;;3.25;3.25;;;;;;;;5070390;28;8835;-84
2023/10/19 05:06:01;;;;;;;;;4.50;4.50;;;;;;;;5070958;28;8857;-82
2023/10/19 05:08:29;;;;;;;;;4.25;4.25;;;;;;;;5067095;28;8826;-83
2023/10/19 05:10:58;;;;;;;;;4.00;4.00;;;;;;;;5059727;28;8861;-83
2023/10/19 05:13:26;;;;;;;;;3.50;3.50;;;;;;;;5067399;28;8850;-80
2023/10/19 05:15:54;;;;;;;;;6.75;4.75;;;;;;;;5069137;28;8846;-75
2023/10/19 05:18:23;;;;;;;;;5.50;3.75;;;;;;;;5069192;28;8839;-85
2023/10/19 05:20:55;;;;;;;;;4.00;2.00;;;;;;;;5069475;28;8851;-83
2023/10/19 05:23:24;;;;;;;;;5.50;3.00;;;;;;;;5067561;28;8913;-82
2023/10/19 05:25:53;;;;;;;;;2.00;2.00;;;;;;;;5066988;28;8881;-78
2023/10/19 05:28:21;;;;;;;;;3.25;1.75;;;;;;;;5071117;28;8851;-80
2023/10/19 05:30:49;;;;;;;;;5.00;3.00;;;;;;;;5071371;28;8823;-79
2023/10/19 05:33:24;;;;;;;;;3.50;2.25;;;;;;;;5060847;28;8954;-79
2023/10/19 05:35:55;;;;;;;;;2.00;2.00;;;;;;;;5069497;28;8898;-78
2023/10/19 05:38:24;;;;;;;;;2.00;2.00;;;;;;;;5072941;28;8997;-80
2023/10/19 05:40:52;;;;;;;;;1.75;1.75;;;;;;;;5070395;28;8839;-79
2023/10/19 05:43:22;;;;;;;;;1.75;1.75;;;;;;;;5067663;28;9649;-81
2023/10/19 05:45:50;;;;;;;;;4.50;2.50;;;;;;;;5065864;28;8882;-81
2023/10/19 05:48:17;;;;;;;;;3.75;1.00;;;;;;;;5066808;28;8854;-80
2023/10/19 05:50:44;;;;;;;;;2.00;2.00;;;;;;;;5066806;28;8842;-80
2023/10/19 05:53:12;;;;;;;;;1.00;1.00;;;;;;;;5066187;28;8862;-82
2023/10/19 05:55:40;;;;;;;;;5.25;2.25;;;;;;;;5066116;28;8894;-80
2023/10/19 05:58:11;;;;;;;;;1.50;1.50;;;;;;;;5066012;28;8858;-81
2023/10/19 06:00:41;;;;;;;;;2.25;2.25;;;;;;;;5065693;28;9517;-81
2023/10/19 06:03:09;;;;;;;;;1.00;1.00;;;;;;;;5066430;28;8878;-82
2023/10/19 06:05:39;;;;;;;;;3.00;2.50;;;;;;;;5066276;28;8890;-81
2023/10/19 06:08:08;;;;;;;;;3.00;1.00;;;;;;;;5066110;28;8970;-80
2023/10/19 06:10:39;;;;;;;;;3.00;1.00;;;;;;;;5055666;28;8850;-81
2023/10/19 06:13:09;;;;;;;;;2.00;1.50;;;;;;;;5067140;28;8859;-81
2023/10/19 06:15:41;;;;;;;;;1.00;1.00;;;;;;;;5068047;28;8881;-82
2023/10/19 06:18:10;;;;;;;;;6.00;2.50;;;;;;;;5066561;28;8877;-82
2023/10/19 06:20:38;;;;;;;;;2.75;1.50;;;;;;;;5067597;28;9625;-80
2023/10/19 06:23:06;;;;;;;;;1.50;1.50;;;;;;;;5065956;28;8924;-80
2023/10/19 06:25:34;;;;;;;;;3.50;3.50;;;;;;;;5068020;28;8855;-79
2023/10/19 06:28:02;;;;;;;;;3.25;1.75;;;;;;;;5065444;28;8870;-80
2023/10/19 06:30:34;;;;;;;;;2.75;1.75;;;;;;;;5067227;28;8775;-80
2023/10/19 06:33:02;;;;;;;;;7.00;2.00;;;;;;;;5064839;28;8862;-79
2023/10/19 06:35:31;;;;;;;;;4.25;2.25;;;;;;;;5068601;28;8968;-79
2023/10/19 06:38:06;;;;;;;;;3.00;2.75;;;;;;;;5067755;28;8863;-81
2023/10/19 06:40:36;;;;;;;;;3.75;3.75;;;;;;;;5067236;28;8870;-81
2023/10/19 06:43:05;;;;;;;;;4.25;2.00;;;;;;;;5067314;28;8869;-80
2023/10/19 06:45:34;;;;;;;;;4.50;2.00;;;;;;;;5065698;28;8859;-82
2023/10/19 06:48:02;;;;;;;;;2.75;2.75;;;;;;;;5070958;28;8869;-83
2023/10/19 06:50:33;;;;;;;;;3.50;2.00;;;;;;;;5070619;28;8849;-83
2023/10/19 06:53:00;;;;;;;;;3.50;2.75;;;;;;;;5072393;28;8854;-81
2023/10/19 06:55:28;;;;;;;;;3.50;3.00;;;;;;;;5069457;28;8862;-82
2023/10/19 06:57:56;;;;;;;;;1.00;1.00;;;;;;;;5072132;28;8932;-81
2023/10/19 07:00:26;;;;;;;;;3.50;2.50;;;;;;;;5069499;28;8859;-80
2023/10/19 07:02:56;;;;;;;;;2.25;2.25;;;;;;;;5072037;28;8876;-82
2023/10/19 07:05:24;;;;;;;;;3.75;3.00;;;;;;;;5071553;28;8905;-81
2023/10/19 07:07:56;;;;;;;;;1.75;1.75;;;;;;;;5071765;28;9017;-74
2023/10/19 07:10:23;;;;;;;;;2.50;1.00;;;;;;;;5059238;28;8859;-76
2023/10/19 07:12:54;;;;;;;;;1.00;1.00;;;;;;;;5074241;28;9025;-76
2023/10/19 07:15:22;;;;;;;;;3.50;1.25;;;;;;;;5074249;28;8863;-76
2023/10/19 07:17:52;;;;;;;;;3.00;1.00;;;;;;;;5074911;28;8846;-77
2023/10/19 07:20:26;;;;;;;;;1.50;1.50;;;;;;;;5074755;28;8863;-77
2023/10/19 07:22:54;;;;;;;;;2.50;2.25;;;;;;;;5076031;28;8923;-76
2023/10/19 07:25:25;;;;;;;;;4.75;2.25;;;;;;;;5070920;28;8842;-81
2023/10/19 07:27:53;;;;;;;;;2.00;2.00;;;;;;;;5069991;28;8985;-78
2023/10/19 07:30:21;;;;;;;;;2.00;2.00;;;;;;;;5069712;28;8875;-78
2023/10/19 07:32:59;;;;;;;;;1.50;1.50;;;;;;;;5056766;28;8873;-79
2023/10/19 07:35:27;;;;;;;;;6.00;1.25;;;;;;;;5058781;28;8899;-79
2023/10/19 07:37:56;;;;;;;;;2.00;1.75;;;;;;;;5061187;28;8885;-76
2023/10/19 07:40:24;;;;;;;;;1.00;1.00;;;;;;;;5070394;28;8935;-78
2023/10/19 07:42:53;;;;;;;;;2.25;2.00;;;;;;;;5070522;28;9375;-78
2023/10/19 07:45:21;;;;;;;;;0.75;0.75;;;;;;;;5068200;28;8883;-76
2023/10/19 07:47:53;;;;;;;;;2.00;2.00;;;;;;;;5067007;28;8889;-79
2023/10/19 07:50:22;;;;;;;;;2.00;2.00;;;;;;;;5070513;28;8858;-77
2023/10/19 07:52:53;;;;;;;;;3.50;2.00;;;;;;;;5058516;28;8857;-81
2023/10/19 07:55:24;;;;;;;;;0.75;0.75;;;;;;;;5066558;28;8843;-81
2023/10/19 07:57:51;;;;;;;;;1.00;1.00;;;;;;;;5056799;28;8939;-79
2023/10/19 08:00:20;;;;;;;;;2.00;0.75;;;;;;;;5066060;28;8989;-78
2023/10/19 08:02:47;;;;;;;;;1.75;1.50;;;;;;;;5055854;28;9631;-82
2023/10/19 08:05:15;;;;;;;;;3.50;1.00;;;;;;;;5059350;28;9637;-79
2023/10/19 08:07:43;;;;;;;;;1.75;1.50;;;;;;;;5055888;28;8956;-80
2023/10/19 08:10:13;;;;;;;;;1.40;1.40;;;;;;;;5067556;28;9382;-80
2023/10/19 08:12:43;;;;;;;;;1.60;0.00;;;;;;;;5071265;28;8873;-80
2023/10/19 08:15:12;;;;;;;;;5.00;2.50;;;;;;;;5070752;28;8871;-82
2023/10/19 08:17:40;;;;;;;;;0.40;0.40;;;;;;;;5070508;28;8926;-78
2023/10/19 08:20:10;;;;;;;;;1.00;1.00;;;;;;;;5070975;28;8890;-82
2023/10/19 08:22:38;;;;;;;;;1.60;0.40;;;;;;;;5070612;28;8862;-85
2023/10/19 08:25:11;;;;;;;;;1.75;1.75;;;;;;;;5070151;28;8873;-78
2023/10/19 08:27:41;;;;;;;;;1.20;1.20;;;;;;;;5069339;28;8862;-77
2023/10/19 08:30:10;;;;;;;;;2.40;2.40;;;;;;;;5068470;28;8846;-77
2023/10/19 08:32:37;;;;;;;;;3.00;1.60;;;;;;;;5067757;28;8944;-78
2023/10/19 08:35:05;;;;;;;;;1.00;1.00;;;;;;;;5060568;28;8833;-77
2023/10/19 08:37:34;;;;;;;;;4.60;3.20;;;;;;;;5065608;28;8869;-79
2023/10/19 08:40:02;;;;;;;;;3.20;0.60;;;;;;;;5060087;28;8872;-80
2023/10/19 08:42:30;;;;;;;;;0.60;0.60;;;;;;;;5053580;28;8846;-78
2023/10/19 08:44:59;;;;;;;;;1.20;1.20;;;;;;;;5070005;28;8851;-77
2023/10/19 08:47:27;;;;;;;;;1.00;0.40;;;;;;;;5070610;28;8858;-76
2023/10/19 08:49:54;;;;;;;;;1.80;1.80;;;;;;;;5070747;28;8905;-75
2023/10/19 08:52:23;;;;;;;;;4.80;1.40;;;;;;;;5071276;28;8855;-77
2023/10/19 08:54:50;;;;;;;;;2.60;1.60;;;;;;;;5071785;28;8866;-77
2023/10/19 08:57:19;;;;;;;;;0.80;0.80;;;;;;;;5071346;28;8869;-78
2023/10/19 08:59:48;;;;;;;;;0.00;0.00;;;;;;;;5072987;28;8953;-77
2023/10/19 09:02:17;;;;;;;;;1.40;1.40;;;;;;;;5072753;28;8842;-77
2023/10/19 09:04:45;;;;;;;;;0.80;0.80;;;;;;;;5073826;28;8853;-76
2023/10/19 09:07:12;;;;;;;;;1.40;1.00;;;;;;;;5070677;28;8866;-78
2023/10/19 09:09:40;;;;;;;;;0.40;0.40;;;;;;;;5055586;28;8854;-77
2023/10/19 09:12:09;;;;;;;;;0.00;0.00;;;;;;;;5068356;28;8850;-76
2023/10/19 09:14:41;;;;;;;;;1.00;1.00;;;;;;;;5070935;28;9212;-77
2023/10/19 09:17:09;;;;;;;;;0.80;0.80;;;;;;;;5058865;28;8935;-77
2023/10/19 09:19:42;;;;;;;;;1.40;0.80;;;;;;;;5068717;28;8936;-78
2023/10/19 09:22:18;;;;;;;;;0.00;0.00;;;;;;;;5067693;28;8835;-79
2023/10/19 09:24:46;;;;;;;;;0.80;0.80;;;;;;;;5068667;28;8862;-80
2023/10/19 09:27:13;;;;;;;;;2.80;0.00;;;;;;;;5066987;28;8960;-78
2023/10/19 09:29:41;;;;;;;;;3.00;1.00;;;;;;;;5065816;28;8881;-78
2023/10/19 09:32:09;;;;;;;;;0.00;0.00;;;;;;;;5066499;28;8818;-77
2023/10/19 09:34:43;;;;;;;;;0.00;0.00;;;;;;;;5067156;28;8858;-80
2023/10/19 09:37:14;;;;;;;;;1.00;1.00;;;;;;;;5068353;28;8838;-78
2023/10/19 09:39:43;;;;;;;;;0.80;0.80;;;;;;;;5070108;28;8869;-77
2023/10/19 09:42:12;;;;;;;;;4.00;1.00;;;;;;;;5067835;28;8862;-77
2023/10/19 09:44:43;;;;;;;;;0.80;0.80;;;;;;;;5068486;28;8969;-77
2023/10/19 09:47:17;;;;;;;;;0.00;0.00;;;;;;;;5067491;28;8874;-78
2023/10/19 09:49:44;;;;;;;;;0.00;0.00;;;;;;;;5068548;28;8851;-79
2023/10/19 09:52:15;;;;;;;;;0.60;0.60;;;;;;;;5066951;28;8878;-78
2023/10/19 09:54:52;;;;;;;;;2.00;0.60;;;;;;;;5067338;28;8851;-79
2023/10/19 09:57:24;;;;;;;;;0.60;0.60;;;;;;;;5066744;28;8859;-77
2023/10/19 09:59:59;;;;;;;;;0.60;0.00;;;;;;;;5067211;28;9779;-77
2023/10/19 10:02:29;;;;;;;;;0.00;0.00;;;;;;;;5055129;28;8974;-77
2023/10/19 10:04:57;;;;;;;;;0.00;0.00;;;;;;;;5067730;28;8855;-77
2023/10/19 10:07:26;;;;;;;;;1.20;0.00;;;;;;;;5069004;28;9012;-76
2023/10/19 10:09:54;;;;;;;;;1.80;0.60;;;;;;;;5054812;28;9520;-77
2023/10/19 10:12:23;;;;;;;;;1.20;0.80;;;;;;;;5067873;28;8843;-77
2023/10/19 10:15:01;;;;;;;;;0.00;0.00;;;;;;;;5068010;28;8889;-78
2023/10/19 10:17:28;;;;;;;;;0.80;0.80;;;;;;;;5068636;28;8854;-78
2023/10/19 10:20:00;;;;;;;;;1.60;0.20;;;;;;;;5067929;28;8859;-78
2023/10/19 10:22:28;;;;;;;;;0.00;0.00;;;;;;;;5067806;28;8855;-76
2023/10/19 10:24:56;;;;;;;;;1.00;1.00;;;;;;;;5066559;28;8866;-76
2023/10/19 10:27:24;;;;;;;;;0.00;0.00;;;;;;;;5067673;28;9742;-76
2023/10/19 10:29:58;;;;;;;;;0.00;0.00;;;;;;;;5067429;28;8836;-76
2023/10/19 10:32:59;;;;;;;;;0.00;0.00;;;;;;;;5068005;28;8823;-75
2023/10/19 10:35:54;;;;;;;;;0.00;0.00;;;;;;;;5057833;28;8847;-75
2023/10/19 10:38:22;;;;;;;;;0.40;0.00;;;;;;;;5054160;28;8849;-75
2023/10/19 10:40:50;;;;;;;;;0.00;0.00;;;;;;;;5069306;28;8839;-80
2023/10/19 10:43:21;;;;;;;;;0.80;0.80;;;;;;;;5071415;28;8965;-78
2023/10/19 10:45:48;;;;;;;;;0.00;0.00;;;;;;;;5070762;28;8924;-75
2023/10/19 10:48:17;;;;;;;;;0.20;0.20;;;;;;;;5070741;28;8847;-75
2023/10/19 10:50:46;;;;;;;;;0.80;0.80;;;;;;;;5071868;28;8923;-76
2023/10/19 10:53:14;;;;;;;;;0.00;0.00;;;;;;;;5068154;28;8931;-81
2023/10/19 10:55:44;;;;;;;;;2.00;0.20;;;;;;;;5061939;28;9403;-76
2023/10/19 10:58:16;;;;;;;;;0.00;0.00;;;;;;;;5061403;28;8890;-79
2023/10/19 11:00:46;;;;;;;;;0.00;0.00;;;;;;;;5051771;28;8774;-80
2023/10/19 11:03:14;;;;;;;;;1.00;0.80;;;;;;;;5063140;28;9523;-79
2023/10/19 11:05:49;;;;;;;;;1.00;1.00;;;;;;;;5060179;28;8849;-76
2023/10/19 11:08:18;;;;;;;;;0.00;0.00;;;;;;;;5048946;28;8846;-76
2023/10/19 11:10:47;;;;;;;;;0.60;0.60;;;;;;;;5056606;28;8891;-82
2023/10/19 11:13:16;;;;;;;;;1.20;1.20;;;;;;;;5066513;28;8839;-82
2023/10/19 11:15:50;;;;;;;;;0.60;0.60;;;;;;;;5066993;28;8858;-75
2023/10/19 11:18:29;;;;;;;;;0.60;0.60;;;;;;;;5066395;28;8855;-77
2023/10/19 11:20:59;;;;;;;;;0.80;0.80;;;;;;;;5065856;28;8843;-77
2023/10/19 11:23:39;;;;;;;;;1.00;1.00;;;;;;;;5066709;28;8862;-76
2023/10/19 11:26:10;;;;;;;;;0.20;0.20;;;;;;;;5066548;28;8850;-78
2023/10/19 11:28:42;;;;;;;;;0.00;0.00;;;;;;;;5068057;28;8862;-83
2023/10/19 11:31:18;;;;;;;;;0.20;0.20;;;;;;;;5065108;28;8918;-79
2023/10/19 11:33:46;;;;;;;;;0.00;0.00;;;;;;;;5067958;28;8862;-77
2023/10/19 11:36:13;;;;;;;;;0.20;0.00;;;;;;;;5067859;28;8839;-85
2023/10/19 11:38:42;;;;;;;;;0.00;0.00;;;;;;;;5069656;28;8854;-79
2023/10/19 11:41:11;;;;;;;;;0.00;0.00;;;;;;;;5070855;28;8866;-77
2023/10/19 11:43:39;;;;;;;;;0.40;0.00;;;;;;;;5070325;28;8847;-80
2023/10/19 11:46:08;;;;;;;;;1.60;0.00;;;;;;;;5070477;28;8971;-77
2023/10/19 11:48:36;;;;;;;;;0.60;0.60;;;;;;;;5070199;28;8994;-80
2023/10/19 11:51:04;;;;;;;;;1.60;0.00;;;;;;;;5070270;28;8851;-77
2023/10/19 11:53:36;;;;;;;;;1.00;0.00;;;;;;;;5071690;28;8963;-76
2023/10/19 11:56:05;;;;;;;;;0.00;0.00;;;;;;;;5069521;28;8966;-83
2023/10/19 11:58:35;;;;;;;;;0.20;0.20;;;;;;;;5066756;28;8914;-77
2023/10/19 12:01:05;;;;;;;;;0.20;0.20;;;;;;;;5068806;28;8782;-78
2023/10/19 12:03:35;;;;;;;;;0.00;0.00;;;;;;;;5069285;28;8858;-83
2023/10/19 12:06:04;;;;;;;;;0.00;0.00;;;;;;;;5068955;28;8969;-77
2023/10/19 12:08:31;;;;;;;;;0.20;0.20;;;;;;;;5065972;28;8857;-77
2023/10/19 12:10:58;;;;;;;;;0.00;0.00;;;;;;;;5061020;28;8871;-79
2023/10/19 12:13:25;;;;;;;;;0.00;0.00;;;;;;;;5069556;28;9265;-76
2023/10/19 12:15:54;;;;;;;;;0.00;0.00;;;;;;;;5069720;28;9005;-77
2023/10/19 12:18:22;;;;;;;;;0.00;0.00;;;;;;;;5068834;28;8851;-77
2023/10/19 12:20:49;;;;;;;;;0.80;0.80;;;;;;;;5070403;28;8862;-77
2023/10/19 12:23:16;;;;;;;;;0.20;0.20;;;;;;;;5071074;28;8847;-77
2023/10/19 12:25:43;;;;;;;;;0.00;0.00;;;;;;;;5072584;28;8847;-77
2023/10/19 12:28:14;;;;;;;;;0.00;0.00;;;;;;;;5072708;28;8872;-77
2023/10/19 12:30:42;;;;;;;;;0.00;0.00;;;;;;;;5073375;28;8767;-77
2023/10/19 12:33:14;;;;;;;;;1.20;0.00;;;;;;;;5073506;28;8917;-78
2023/10/19 12:35:49;;;;;;;;;1.60;0.00;;;;;;;;5071045;28;8961;-77
2023/10/19 12:38:17;;;;;;;;;0.00;0.00;;;;;;;;5063964;28;8878;-82
2023/10/19 12:40:46;;;;;;;;;0.00;0.00;;;;;;;;5069533;28;8823;-83
2023/10/19 12:43:13;;;;;;;;;0.00;0.00;;;;;;;;5070028;28;8855;-81
2023/10/19 12:45:43;;;;;;;;;0.00;0.00;;;;;;;;5068736;28;8843;-78
2023/10/19 12:48:12;;;;;;;;;0.80;0.80;;;;;;;;5071133;28;9260;-79
2023/10/19 12:50:40;;;;;;;;;0.00;0.00;;;;;;;;5068458;28;9625;-78
2023/10/19 12:53:08;;;;;;;;;0.00;0.00;;;;;;;;5067396;28;8859;-76
2023/10/19 12:55:37;;;;;;;;;0.00;0.00;;;;;;;;5069105;28;8954;-81
2023/10/19 12:58:08;;;;;;;;;0.00;0.00;;;;;;;;5069489;28;8842;-77
2023/10/19 13:00:44;;;;;;;;;0.00;0.00;;;;;;;;5067446;28;8779;-78
2023/10/19 13:03:15;;;;;;;;;0.60;0.00;;;;;;;;5067344;28;8870;-77
2023/10/19 13:05:44;;;;;;;;;0.00;0.00;;;;;;;;5069649;28;9609;-77
2023/10/19 13:08:18;;;;;;;;;1.40;0.20;;;;;;;;5067323;28;8858;-77
2023/10/19 13:10:47;;;;;;;;;1.40;0.00;;;;;;;;5057811;28;8855;-79
2023/10/19 13:13:16;;;;;;;;;0.40;0.00;;;;;;;;5068118;28;8924;-75
2023/10/19 13:15:45;;;;;;;;;0.00;0.00;;;;;;;;5068779;28;8838;-74
2023/10/19 13:18:19;;;;;;;;;0.40;0.40;;;;;;;;5067687;28;8855;-76
2023/10/19 13:20:48;;;;;;;;;0.00;0.00;;;;;;;;5068833;28;8959;-77
2023/10/19 13:23:21;;;;;;;;;0.00;0.00;;;;;;;;5068058;28;8854;-75
2023/10/19 13:25:53;;;;;;;;;0.00;0.00;;;;;;;;5066974;28;8847;-79
2023/10/19 13:28:22;;;;;;;;;0.00;0.00;;;;;;;;5067941;28;9015;-74
2023/10/19 13:30:50;;;;;;;;;0.00;0.00;;;;;;;;5066424;28;8821;-75
2023/10/19 13:33:21;;;;;;;;;0.00;0.00;;;;;;;;5067716;28;8871;-76
2023/10/19 13:35:48;;;;;;;;;0.00;0.00;;;;;;;;5067283;28;8854;-77
2023/10/19 13:38:17;;;;;;;;;0.00;0.00;;;;;;;;5067416;28;8876;-75
2023/10/19 13:40:45;;;;;;;;;0.00;0.00;;;;;;;;5067701;28;8986;-75
2023/10/19 13:43:14;;;;;;;;;0.00;0.00;;;;;;;;5068097;28;8847;-76
2023/10/19 13:45:42;;;;;;;;;0.00;0.00;;;;;;;;5068218;28;8847;-76
2023/10/19 13:48:10;;;;;;;;;0.00;0.00;;;;;;;;5067377;28;8874;-75
2023/10/19 13:50:44;;;;;;;;;0.00;0.00;;;;;;;;5067713;28;8878;-76
2023/10/19 13:53:11;;;;;;;;;0.00;0.00;;;;;;;;5067506;28;9260;-76
2023/10/19 13:55:38;;;;;;;;;0.00;0.00;;;;;;;;5065403;28;8881;-81
2023/10/19 13:58:08;;;;;;;;;0.00;0.00;;;;;;;;5067561;28;8851;-75
2023/10/19 14:00:40;;;;;;;;;0.60;0.00;;;;;;;;5067830;28;8853;-77
2023/10/19 14:03:12;;;;;;;;;0.80;0.00;;;;;;;;5067364;28;8985;-76
2023/10/19 14:05:42;;;;;;;;;2.00;0.00;;;;;;;;5056935;28;8858;-78
2023/10/19 14:08:10;;;;;;;;;1.00;0.00;;;;;;;;5069099;28;8834;-76
2023/10/19 14:10:41;;;;;;;;;0.00;0.00;;;;;;;;5058963;28;8881;-78
2023/10/19 14:13:12;;;;;;;;;0.00;0.00;;;;;;;;5070343;28;8901;-76
2023/10/19 14:15:40;;;;;;;;;0.00;0.00;;;;;;;;5070955;28;8973;-77
2023/10/19 14:18:10;;;;;;;;;0.00;0.00;;;;;;;;5071573;28;8847;-78
2023/10/19 14:20:38;;;;;;;;;0.00;0.00;;;;;;;;5067313;28;8869;-79
2023/10/19 14:23:07;;;;;;;;;0.00;0.00;;;;;;;;5066000;28;8853;-78
2023/10/19 14:25:41;;;;;;;;;0.00;0.00;;;;;;;;5067948;28;8977;-80
2023/10/19 14:28:09;;;;;;;;;0.00;0.00;;;;;;;;5067030;28;8871;-78
2023/10/19 14:30:37;;;;;;;;;0.00;0.00;;;;;;;;5067233;28;8893;-80
2023/10/19 14:33:09;;;;;;;;;0.00;0.00;;;;;;;;5064279;28;8949;-82
2023/10/19 14:35:39;;;;;;;;;0.80;0.00;;;;;;;;5065838;28;8860;-76
2023/10/19 14:38:09;;;;;;;;;0.00;0.00;;;;;;;;5067484;28;8858;-76
2023/10/19 14:40:36;;;;;;;;;0.00;0.00;;;;;;;;5065058;28;8878;-76
2023/10/19 14:43:04;;;;;;;;;0.00;0.00;;;;;;;;5066877;28;8889;-78
2023/10/19 14:45:32;;;;;;;;;0.00;0.00;;;;;;;;5065314;28;8861;-77
2023/10/19 14:48:03;;;;;;;;;0.00;0.00;;;;;;;;5065576;28;8968;-80
2023/10/19 14:50:32;;;;;;;;;0.00;0.00;;;;;;;;5065375;28;8931;-76
2023/10/19 14:52:59;;;;;;;;;0.00;0.00;;;;;;;;5068952;28;8883;-76
2023/10/19 14:55:29;;;;;;;;;0.00;0.00;;;;;;;;5065130;28;8831;-77
2023/10/19 14:57:56;;;;;;;;;0.00;0.00;;;;;;;;5065518;28;8882;-76
2023/10/19 15:00:32;;;;;;;;;0.00;0.00;;;;;;;;5064498;28;8851;-76
2023/10/19 15:03:00;;;;;;;;;0.00;0.00;;;;;;;;5066779;28;9260;-76
2023/10/19 15:05:29;;;;;;;;;0.00;0.00;;;;;;;;5065511;28;8858;-78
2023/10/19 15:07:57;;;;;;;;;0.00;0.00;;;;;;;;5068393;28;8858;-77
2023/10/19 15:10:27;;;;;;;;;0.00;0.00;;;;;;;;5057956;28;8885;-77
2023/10/19 15:12:55;;;;;;;;;0.00;0.00;;;;;;;;5069712;28;8855;-80
2023/10/19 15:15:23;;;;;;;;;0.20;0.20;;;;;;;;5070492;28;8870;-81